To NAV CANADA Home Page Login to a new session Search on AWWS site Feedback and Comments Disclaimer Vers la page française équivalente Tips FAQ What's new on the site To the Forecasts and Observations / NOTAM section To "File a Flight Plan" website Publications and other links Update of the User's profile FIC Telephone Numbers My Weather Data Folder Route Weather Data Regional Weather Data Local Weather Data To the Forecasts and Observations / NOTAM section
Request Generated 05/25/2015 at 01:01:37 UTC . Weather information available at that time is displayed.

METAR/TAF

TORONTO/BILLY BISHOP TORONTO CITY AIRPORT/ON    (show WxCam)

METAR CYTZ 250000Z AUTO 24006KT 9SM BKN100 14/08 A3013 RMK SLP203=
METAR CYTZ 242300Z AUTO VRB02KT 9SM BKN095 BKN220 17/09 A3012 RMK
SLP199 DENSITY ALT 300FT=
METAR CYTZ 242200Z AUTO VRB02KT 9SM BKN095 19/09 A3013 RMK SLP202
DENSITY ALT 500FT=

TAF CYTZ 241938Z 2420/2520 19010KT P6SM BKN100
BECMG 2423/2501 23006KT
FM250500 VRB03KT P6SM OVC060 TEMPO 2505/2511 P6SM -RA
FM251400 09007KT P6SM BKN180
FM251800 11012KT P6SM -SHRA OVC050
RMK FCST BASED ON AUTO OBS. NXT FCST BY 250200Z=
Your time UTC time
Weather data provided by Environment Canada and NAV CANADA